Time;durP1;ratioP1;P1;durP2;ratioP2;P2;SDS_P1;SDS_P2;PMS_P1;PMS_P2;Temp;Humidity;BMP_temperature;BMP_pressure;BME280_temperature;BME280_humidity;BME280_pressure;Samples;Min_cycle;Max_cycle;Signal;HPM_P1;HPM_P2
2023/04/18 00:01:37;;;;;;;17.93;13.00;;;6.80;99.90;;;;;;4969971;28;20728;-70
2023/04/18 00:04:03;;;;;;;15.83;12.00;;;6.80;99.90;;;;;;4969299;28;20762;-69
2023/04/18 00:06:30;;;;;;;69.20;61.50;;;7.00;99.90;;;;;;4970256;28;20209;-68
2023/04/18 00:08:55;;;;;;;30.43;23.03;;;7.50;99.90;;;;;;4971007;28;20201;-68
2023/04/18 00:11:21;;;;;;;24.53;21.90;;;7.70;99.90;;;;;;4967424;28;20209;-69
2023/04/18 00:13:46;;;;;;;18.90;15.17;;;7.80;99.90;;;;;;4963853;28;20206;-79
2023/04/18 00:16:12;;;;;;;14.87;12.17;;;7.90;99.90;;;;;;4970763;28;20201;-67
2023/04/18 00:18:38;;;;;;;15.87;11.40;;;7.70;99.90;;;;;;4965128;28;21029;-65
2023/04/18 00:21:05;;;;;;;13.43;11.77;;;7.40;99.90;;;;;;4959180;28;20219;-64
2023/04/18 00:23:33;;;;;;;14.63;11.83;;;7.20;99.90;;;;;;4968047;28;20228;-65
2023/04/18 00:25:58;;;;;;;16.53;12.23;;;7.00;99.90;;;;;;4969063;28;20232;-66
2023/04/18 00:28:24;;;;;;;13.50;12.10;;;6.90;99.90;;;;;;4977418;28;20535;-65
2023/04/18 00:30:49;;;;;;;17.10;12.73;;;6.90;99.90;;;;;;4967455;28;20200;-65
2023/04/18 00:33:15;;;;;;;16.47;11.80;;;6.80;99.90;;;;;;4967689;28;20361;-64
2023/04/18 00:35:41;;;;;;;17.97;12.77;;;6.70;99.90;;;;;;4972731;28;21022;-65
2023/04/18 00:38:06;;;;;;;18.30;12.93;;;6.70;99.90;;;;;;4969820;28;20201;-65
2023/04/18 00:40:32;;;;;;;14.50;11.73;;;6.60;99.90;;;;;;4965607;28;20951;-66
2023/04/18 00:42:58;;;;;;;15.07;11.93;;;6.60;99.90;;;;;;4965856;28;20209;-65
2023/04/18 00:45:24;;;;;;;17.57;13.50;;;6.50;99.90;;;;;;4972371;28;20215;-66
2023/04/18 00:47:49;;;;;;;17.60;13.73;;;6.50;99.90;;;;;;4968419;28;20389;-76
2023/04/18 00:50:15;;;;;;;20.47;13.27;;;6.40;99.90;;;;;;4965454;28;20213;-72
2023/04/18 00:52:42;;;;;;;16.83;12.80;;;6.40;99.90;;;;;;4977496;28;20205;-72
2023/04/18 00:55:09;;;;;;;19.57;12.77;;;6.40;99.90;;;;;;4974468;28;20283;-72
2023/04/18 00:57:35;;;;;;;14.37;11.50;;;6.70;99.90;;;;;;4965716;28;20706;-72
2023/04/18 01:00:03;;;;;;;18.13;13.37;;;6.60;99.90;;;;;;4963456;28;20904;-71
2023/04/18 01:02:29;;;;;;;20.20;14.53;;;6.50;99.90;;;;;;4969023;28;20792;-71
2023/04/18 01:04:57;;;;;;;19.23;14.87;;;6.40;99.90;;;;;;4967495;28;20584;-70
2023/04/18 01:07:24;;;;;;;17.97;13.67;;;6.30;99.90;;;;;;4966460;28;20288;-70
2023/04/18 01:09:50;;;;;;;20.20;14.27;;;6.30;99.90;;;;;;4969513;28;20228;-70
2023/04/18 01:12:15;;;;;;;19.00;15.47;;;6.30;99.90;;;;;;4970211;28;20847;-72
2023/04/18 01:14:44;;;;;;;19.80;14.87;;;6.40;99.90;;;;;;4977299;28;20627;-72
2023/04/18 01:17:09;;;;;;;18.60;14.97;;;6.40;99.90;;;;;;4977628;28;20255;-80
2023/04/18 01:19:36;;;;;;;21.53;14.40;;;6.40;99.90;;;;;;4978160;28;20208;-77
2023/04/18 01:22:02;;;;;;;20.10;14.37;;;6.40;99.90;;;;;;4975012;28;20205;-73
2023/04/18 01:24:30;;;;;;;19.47;13.83;;;6.40;99.90;;;;;;4977382;28;20714;-73
2023/04/18 01:26:56;;;;;;;19.70;15.00;;;6.40;99.90;;;;;;4977272;28;20204;-73
2023/04/18 01:29:22;;;;;;;19.80;14.87;;;6.40;99.90;;;;;;4967824;28;20273;-71
2023/04/18 01:31:47;;;;;;;19.10;14.80;;;6.40;99.90;;;;;;4967671;28;20288;-71
2023/04/18 01:34:13;;;;;;;16.67;13.87;;;6.40;99.90;;;;;;4977305;28;20962;-72
2023/04/18 01:36:39;;;;;;;18.63;13.77;;;6.40;99.90;;;;;;4966543;28;20208;-72
2023/04/18 01:39:05;;;;;;;17.47;12.97;;;6.30;99.90;;;;;;4967813;28;20204;-77
2023/04/18 01:41:31;;;;;;;18.00;12.97;;;6.30;99.90;;;;;;4965823;28;20197;-68
2023/04/18 01:43:57;;;;;;;14.87;12.00;;;6.20;99.90;;;;;;4965041;28;20213;-69
2023/04/18 01:46:23;;;;;;;18.37;13.60;;;6.20;99.90;;;;;;4967554;28;20264;-69
2023/04/18 01:48:49;;;;;;;17.03;12.17;;;6.20;99.90;;;;;;4969010;28;20676;-68
2023/04/18 01:51:14;;;;;;;16.40;12.93;;;6.20;99.90;;;;;;4968922;28;20607;-68
2023/04/18 01:53:40;;;;;;;20.27;13.57;;;6.10;99.90;;;;;;4966219;28;20755;-69
2023/04/18 01:56:06;;;;;;;18.63;13.93;;;6.00;99.90;;;;;;4947220;28;20210;-69
2023/04/18 01:58:31;;;;;;;15.70;14.07;;;6.00;99.90;;;;;;4970254;28;20201;-70
2023/04/18 02:00:57;;;;;;;15.17;13.37;;;6.00;99.90;;;;;;4966502;28;20690;-69
2023/04/18 02:03:23;;;;;;;17.53;12.83;;;6.00;99.90;;;;;;4966591;28;20742;-69
2023/04/18 02:05:49;;;;;;;17.97;13.13;;;6.00;99.90;;;;;;4966810;28;20889;-69
2023/04/18 02:08:14;;;;;;;17.93;13.13;;;6.00;99.90;;;;;;4965735;28;20791;-69
2023/04/18 02:10:40;;;;;;;17.20;11.83;;;6.10;99.90;;;;;;4964877;28;20224;-69
2023/04/18 02:13:06;;;;;;;12.97;11.57;;;6.10;99.90;;;;;;4965431;28;21005;-68
2023/04/18 02:15:32;;;;;;;15.33;11.83;;;6.20;99.90;;;;;;4973092;28;20232;-73
2023/04/18 02:17:58;;;;;;;16.03;10.70;;;6.20;99.90;;;;;;4975982;28;20204;-72
2023/04/18 02:20:25;;;;;;;17.87;12.90;;;6.20;99.90;;;;;;4975524;28;20200;-71
2023/04/18 02:22:51;;;;;;;15.07;12.47;;;6.20;99.90;;;;;;4974809;28;20746;-73
2023/04/18 02:25:17;;;;;;;15.83;12.83;;;6.20;99.90;;;;;;4976864;28;20215;-69
2023/04/18 02:27:43;;;;;;;12.40;11.10;;;6.20;99.90;;;;;;4976754;28;20204;-69
2023/04/18 02:30:09;;;;;;;15.40;12.60;;;6.30;99.90;;;;;;4976281;28;20200;-69
2023/04/18 02:32:34;;;;;;;14.13;10.93;;;6.20;99.90;;;;;;4971750;28;20209;-69
2023/04/18 02:35:00;;;;;;;13.57;11.67;;;6.20;99.90;;;;;;4978546;28;20212;-69
2023/04/18 02:37:26;;;;;;;15.30;12.37;;;6.20;99.90;;;;;;4979625;28;20719;-76
2023/04/18 02:39:52;;;;;;;16.33;12.07;;;6.20;99.90;;;;;;4975623;28;20204;-74
2023/04/18 02:42:17;;;;;;;16.53;11.97;;;6.20;99.90;;;;;;4972195;28;20208;-70
2023/04/18 02:44:43;;;;;;;15.07;11.70;;;6.10;99.90;;;;;;4978282;28;20770;-69
2023/04/18 02:47:08;;;;;;;14.07;11.50;;;6.00;99.90;;;;;;4979410;28;20284;-70
2023/04/18 02:49:34;;;;;;;16.03;12.20;;;6.00;99.90;;;;;;4980414;28;20881;-69
2023/04/18 02:51:59;;;;;;;15.27;12.10;;;5.90;99.90;;;;;;4979934;28;20284;-70
2023/04/18 02:54:25;;;;;;;13.53;11.13;;;5.80;99.90;;;;;;4979866;28;20224;-70
2023/04/18 02:56:52;;;;;;;20.70;13.07;;;5.80;99.90;;;;;;4980113;28;20208;-70
2023/04/18 02:59:18;;;;;;;13.80;11.97;;;5.80;99.90;;;;;;4978466;28;20243;-71
2023/04/18 03:01:43;;;;;;;16.03;11.80;;;5.80;99.90;;;;;;4979109;28;20671;-69
2023/04/18 03:04:09;;;;;;;18.80;13.00;;;5.70;99.90;;;;;;4979527;28;20603;-69
2023/04/18 03:06:34;;;;;;;18.80;12.00;;;5.70;99.90;;;;;;4979983;28;20204;-70
2023/04/18 03:09:00;;;;;;;13.60;11.97;;;5.70;99.90;;;;;;4979610;28;20224;-69
2023/04/18 03:11:25;;;;;;;15.70;12.10;;;5.80;99.90;;;;;;4979949;28;20563;-70
2023/04/18 03:13:52;;;;;;;12.33;11.07;;;5.80;99.90;;;;;;4978074;28;20299;-70
2023/04/18 03:16:17;;;;;;;15.80;12.43;;;5.90;99.90;;;;;;4979156;28;20311;-69
2023/04/18 03:18:43;;;;;;;16.90;12.67;;;5.90;99.90;;;;;;4978922;28;20220;-70
2023/04/18 03:21:08;;;;;;;12.13;10.30;;;5.90;99.90;;;;;;4979203;28;20606;-70
2023/04/18 03:23:34;;;;;;;17.20;12.00;;;6.00;99.90;;;;;;4979984;28;20278;-69
2023/04/18 03:25:59;;;;;;;12.83;10.47;;;6.00;99.90;;;;;;4977844;28;20208;-70
2023/04/18 03:28:25;;;;;;;16.20;11.73;;;6.10;99.90;;;;;;4979607;28;20200;-70
2023/04/18 03:30:50;;;;;;;13.93;10.93;;;6.10;99.90;;;;;;4979589;28;20335;-69
2023/04/18 03:33:16;;;;;;;14.87;12.47;;;6.10;99.90;;;;;;4978823;28;20225;-70
2023/04/18 03:35:42;;;;;;;13.90;11.73;;;6.10;99.90;;;;;;4981587;28;20208;-69
2023/04/18 03:38:07;;;;;;;15.67;11.87;;;6.10;99.90;;;;;;4958595;28;20207;-69
2023/04/18 03:40:33;;;;;;;19.37;12.67;;;6.20;99.90;;;;;;4978582;28;20235;-68
2023/04/18 03:43:01;;;;;;;15.37;11.97;;;6.20;99.90;;;;;;4978331;28;20601;-68
2023/04/18 03:45:26;;;;;;;14.63;10.77;;;6.20;99.90;;;;;;4977876;28;20224;-69
2023/04/18 03:47:52;;;;;;;13.83;11.57;;;6.10;99.90;;;;;;4978944;28;20204;-69
2023/04/18 03:50:17;;;;;;;12.67;10.83;;;6.10;99.90;;;;;;4978428;28;20196;-69
2023/04/18 03:52:43;;;;;;;17.53;11.73;;;6.10;99.90;;;;;;4977347;28;20304;-68
2023/04/18 03:55:10;;;;;;;15.00;11.17;;;6.10;99.90;;;;;;4979019;28;20554;-68
2023/04/18 03:57:35;;;;;;;15.73;11.60;;;6.10;99.90;;;;;;4978258;28;20217;-68
2023/04/18 04:00:01;;;;;;;13.37;10.73;;;6.10;99.90;;;;;;4978527;28;20215;-69
2023/04/18 04:02:26;;;;;;;13.70;11.33;;;6.10;99.90;;;;;;4980942;28;20498;-69
2023/04/18 04:04:52;;;;;;;17.23;13.13;;;6.10;99.90;;;;;;4974559;28;20271;-69
2023/04/18 04:07:17;;;;;;;14.70;11.60;;;6.20;99.90;;;;;;4976499;28;20715;-70
2023/04/18 04:09:42;;;;;;;14.47;11.70;;;6.20;99.90;;;;;;4979989;28;20200;-70
2023/04/18 04:12:08;;;;;;;17.60;13.00;;;6.10;99.90;;;;;;4975949;28;20590;-69
2023/04/18 04:14:33;;;;;;;20.07;14.20;;;6.10;99.90;;;;;;4977396;28;20201;-69
2023/04/18 04:16:59;;;;;;;20.07;13.47;;;6.10;99.90;;;;;;4977797;28;20208;-69
2023/04/18 04:19:24;;;;;;;13.37;11.40;;;6.20;99.90;;;;;;4978197;28;20219;-69
2023/04/18 04:21:50;;;;;;;16.17;12.33;;;6.20;99.90;;;;;;4977598;28;20319;-69
2023/04/18 04:24:16;;;;;;;16.13;12.50;;;6.10;99.90;;;;;;4980847;28;20218;-70
2023/04/18 04:26:41;;;;;;;14.00;11.67;;;6.10;99.90;;;;;;4975229;28;20201;-69
2023/04/18 04:29:09;;;;;;;16.70;11.40;;;6.10;99.90;;;;;;4977725;28;20208;-69
2023/04/18 04:31:35;;;;;;;16.80;13.17;;;6.20;99.90;;;;;;4977504;28;20213;-68
2023/04/18 04:34:00;;;;;;;16.47;12.13;;;6.20;99.90;;;;;;4977689;28;20247;-69
2023/04/18 04:36:26;;;;;;;14.53;12.13;;;6.20;99.90;;;;;;4978052;28;20204;-69
2023/04/18 04:38:51;;;;;;;13.97;11.67;;;6.30;99.90;;;;;;4978201;28;20220;-69
2023/04/18 04:41:17;;;;;;;14.27;10.77;;;6.30;99.90;;;;;;4977650;28;20228;-69
2023/04/18 04:43:42;;;;;;;16.33;11.57;;;6.30;99.90;;;;;;4975966;28;20852;-69
2023/04/18 04:46:08;;;;;;;19.03;13.63;;;6.30;99.90;;;;;;4978096;28;20201;-68
2023/04/18 04:48:34;;;;;;;15.90;11.53;;;6.30;99.90;;;;;;4976732;28;20774;-69
2023/04/18 04:51:00;;;;;;;17.63;12.50;;;6.30;99.90;;;;;;4977344;28;20237;-69
2023/04/18 04:53:29;;;;;;;15.80;11.73;;;6.30;99.90;;;;;;4978081;28;20201;-69
2023/04/18 04:55:54;;;;;;;12.93;10.97;;;6.30;99.90;;;;;;4974545;28;20197;-69
2023/04/18 04:58:20;;;;;;;18.73;12.47;;;6.30;99.90;;;;;;4977867;28;20208;-70
2023/04/18 05:00:46;;;;;;;14.53;11.23;;;6.30;99.90;;;;;;4977192;28;20235;-70
2023/04/18 05:03:11;;;;;;;15.57;13.03;;;6.20;99.90;;;;;;4977642;28;20654;-70
2023/04/18 05:05:37;;;;;;;16.33;12.60;;;6.20;99.90;;;;;;4978026;28;20258;-71
2023/04/18 05:08:03;;;;;;;14.47;11.87;;;6.10;99.90;;;;;;4959623;28;20212;-71
2023/04/18 05:10:29;;;;;;;16.43;12.00;;;6.10;99.90;;;;;;4977085;28;20200;-69
2023/04/18 05:12:55;;;;;;;19.47;12.67;;;6.00;99.90;;;;;;4977112;28;20205;-70
2023/04/18 05:15:21;;;;;;;15.50;12.77;;;6.00;99.90;;;;;;4977121;28;20657;-70
2023/04/18 05:17:47;;;;;;;15.03;12.37;;;6.00;99.90;;;;;;4977074;28;20628;-70
2023/04/18 05:20:12;;;;;;;18.30;11.17;;;5.90;99.90;;;;;;4976071;28;20207;-70
2023/04/18 05:22:38;;;;;;;15.70;12.33;;;5.90;99.90;;;;;;4975531;28;20635;-70
2023/04/18 05:25:04;;;;;;;19.00;13.43;;;6.00;99.90;;;;;;4975014;28;20304;-69
2023/04/18 05:27:29;;;;;;;14.43;12.60;;;6.00;99.90;;;;;;4975139;28;20224;-68
2023/04/18 05:29:55;;;;;;;17.40;12.67;;;6.00;99.90;;;;;;4963335;28;20220;-71
2023/04/18 05:32:20;;;;;;;17.00;12.50;;;6.00;99.90;;;;;;4975676;28;20201;-70
2023/04/18 05:34:47;;;;;;;15.37;12.60;;;6.00;99.90;;;;;;4974719;28;20220;-70
2023/04/18 05:37:13;;;;;;;15.30;13.67;;;6.00;99.90;;;;;;4976456;28;20290;-69
2023/04/18 05:39:39;;;;;;;15.73;12.40;;;6.10;99.90;;;;;;4975803;28;20201;-70
2023/04/18 05:42:04;;;;;;;18.20;13.23;;;6.20;99.90;;;;;;4967630;28;20295;-70
2023/04/18 05:44:30;;;;;;;15.53;12.93;;;6.20;99.90;;;;;;4965523;28;20231;-70
2023/04/18 05:46:55;;;;;;;17.60;12.70;;;6.20;99.90;;;;;;4964597;28;20746;-71
2023/04/18 05:49:21;;;;;;;17.97;13.63;;;6.30;99.90;;;;;;4967618;28;20205;-69
2023/04/18 05:51:48;;;;;;;16.60;12.43;;;6.40;99.90;;;;;;4965476;28;20679;-71
2023/04/18 05:54:14;;;;;;;16.90;13.70;;;6.50;99.90;;;;;;4966540;28;20212;-69
2023/04/18 05:56:40;;;;;;;15.67;12.40;;;6.60;99.90;;;;;;4969941;28;20220;-69
2023/04/18 05:59:05;;;;;;;15.57;12.67;;;6.60;99.90;;;;;;4964651;28;20208;-70
2023/04/18 06:01:31;;;;;;;21.70;12.87;;;6.70;99.90;;;;;;4966970;28;20212;-71
2023/04/18 06:03:57;;;;;;;16.57;12.70;;;6.70;99.90;;;;;;4967333;28;20304;-70
2023/04/18 06:06:22;;;;;;;23.07;11.70;;;6.70;99.90;;;;;;4967603;28;20750;-68
2023/04/18 06:08:48;;;;;;;15.40;11.77;;;6.70;99.90;;;;;;4969865;28;20291;-72
2023/04/18 06:11:18;;;;;;;15.57;12.20;;;6.80;99.90;;;;;;4970203;28;20235;-69
2023/04/18 06:13:44;;;;;;;13.43;12.00;;;6.90;99.90;;;;;;4970908;28;20985;-69
2023/04/18 06:16:10;;;;;;;16.23;11.80;;;6.90;99.90;;;;;;4969228;28;20200;-70
2023/04/18 06:18:35;;;;;;;15.83;10.73;;;6.90;99.90;;;;;;4973357;28;20491;-70
2023/04/18 06:21:01;;;;;;;16.40;11.10;;;6.80;99.90;;;;;;4971790;28;20742;-71
2023/04/18 06:23:26;;;;;;;14.00;10.73;;;6.80;99.90;;;;;;4973379;28;20205;-67
2023/04/18 06:25:52;;;;;;;18.87;11.80;;;6.90;99.90;;;;;;4955591;28;20610;-70
2023/04/18 06:28:17;;;;;;;13.67;11.10;;;7.10;99.90;;;;;;4956262;28;20192;-70
2023/04/18 06:30:43;;;;;;;15.20;11.13;;;7.20;99.90;;;;;;4973271;28;20236;-69
2023/04/18 06:33:09;;;;;;;12.77;10.77;;;7.30;99.90;;;;;;4972469;28;20253;-68
2023/04/18 06:35:35;;;;;;;12.13;10.10;;;7.40;99.90;;;;;;4955159;28;20208;-70
2023/04/18 06:38:01;;;;;;;12.57;10.07;;;7.60;99.90;;;;;;4972835;28;20267;-69
2023/04/18 06:40:26;;;;;;;12.00;10.37;;;7.90;99.90;;;;;;4971326;28;20193;-68
2023/04/18 06:42:52;;;;;;;11.30;10.17;;;8.00;99.90;;;;;;4977390;28;20239;-68
2023/04/18 06:45:17;;;;;;;15.30;10.43;;;8.10;99.90;;;;;;4982484;28;20243;-69
2023/04/18 06:47:46;;;;;;;15.83;10.53;;;8.20;99.90;;;;;;4971399;28;20224;-69
2023/04/18 06:50:12;;;;;;;16.67;10.90;;;8.20;99.90;;;;;;4973849;28;20208;-69
2023/04/18 06:52:41;;;;;;;13.73;10.63;;;8.20;99.90;;;;;;4979801;28;20213;-68
2023/04/18 06:55:08;;;;;;;12.67;10.67;;;8.30;99.90;;;;;;4972672;28;20287;-69
2023/04/18 06:57:33;;;;;;;11.70;9.83;;;8.50;99.90;;;;;;4975694;28;20225;-68
2023/04/18 06:59:59;;;;;;;13.20;9.87;;;8.60;99.90;;;;;;4970626;28;20238;-73
2023/04/18 07:02:24;;;;;;;12.10;9.90;;;8.70;99.90;;;;;;4968861;28;20208;-71
2023/04/18 07:04:50;;;;;;;14.17;10.37;;;8.80;99.90;;;;;;4973128;28;20222;-71
2023/04/18 07:07:16;;;;;;;14.07;10.77;;;8.90;99.90;;;;;;4972978;28;20193;-70
2023/04/18 07:09:41;;;;;;;15.13;9.93;;;8.90;99.90;;;;;;4973368;28;20228;-83
2023/04/18 07:12:07;;;;;;;10.97;9.17;;;8.80;99.90;;;;;;4955098;28;20204;-69
2023/04/18 07:14:32;;;;;;;12.73;8.67;;;8.80;99.90;;;;;;4970040;28;20691;-70
2023/04/18 07:16:59;;;;;;;11.00;8.50;;;8.80;99.90;;;;;;4972340;28;20232;-70
2023/04/18 07:19:25;;;;;;;12.77;10.53;;;8.90;99.90;;;;;;4972420;28;20209;-69
2023/04/18 07:21:50;;;;;;;11.30;9.30;;;9.00;99.90;;;;;;4968105;28;20198;-69
2023/04/18 07:24:16;;;;;;;13.77;9.13;;;9.20;99.90;;;;;;4967853;28;20214;-70
2023/04/18 07:26:41;;;;;;;11.77;9.43;;;9.40;99.90;;;;;;4952650;28;20201;-70
2023/04/18 07:29:07;;;;;;;9.60;8.70;;;9.70;99.90;;;;;;4969222;28;20200;-69
2023/04/18 07:31:33;;;;;;;10.97;9.00;;;9.70;99.90;;;;;;4969049;28;20283;-70
2023/04/18 07:33:58;;;;;;;11.07;8.37;;;9.40;99.90;;;;;;4969691;28;20229;-69
2023/04/18 07:36:25;;;;;;;11.53;9.63;;;9.30;99.90;;;;;;4967390;28;20202;-68
2023/04/18 07:38:50;;;;;;;12.43;9.80;;;9.30;99.90;;;;;;4968945;28;20224;-68
2023/04/18 07:41:16;;;;;;;14.40;10.10;;;9.20;99.90;;;;;;4968634;28;20209;-68
2023/04/18 07:43:43;;;;;;;12.80;9.83;;;9.20;99.90;;;;;;4968454;28;20217;-68
2023/04/18 07:46:09;;;;;;;12.83;9.83;;;9.30;99.90;;;;;;4968723;28;20221;-68
2023/04/18 07:48:34;;;;;;;10.67;9.07;;;9.40;99.90;;;;;;4967714;28;20644;-68
2023/04/18 07:51:00;;;;;;;13.73;9.30;;;9.50;99.90;;;;;;4951351;28;20399;-68
2023/04/18 07:53:25;;;;;;;10.80;9.27;;;9.50;99.90;;;;;;4969366;28;20209;-69
2023/04/18 07:55:53;;;;;;;9.70;8.57;;;9.70;99.90;;;;;;4969142;28;20216;-68
2023/04/18 07:58:18;;;;;;;12.07;10.00;;;9.80;99.90;;;;;;4969171;28;20258;-69
2023/04/18 08:00:44;;;;;;;11.80;9.60;;;10.10;99.90;;;;;;4969686;28;20194;-68
2023/04/18 08:03:10;;;;;;;14.87;10.13;;;10.30;99.90;;;;;;4966798;28;20713;-69
2023/04/18 08:05:40;;;;;;;9.77;8.77;;;10.60;99.90;;;;;;4968625;28;20225;-69
2023/04/18 08:08:07;;;;;;;9.63;8.60;;;10.90;99.90;;;;;;4968021;28;20207;-68
2023/04/18 08:10:33;;;;;;;10.63;9.53;;;11.10;99.90;;;;;;4968104;28;20233;-68
2023/04/18 08:12:59;;;;;;;10.93;9.43;;;11.20;99.90;;;;;;4966955;28;20525;-68
2023/04/18 08:15:26;;;;;;;11.17;9.57;;;11.20;99.90;;;;;;4951489;28;20274;-68
2023/04/18 08:17:52;;;;;;;15.67;10.27;;;11.00;99.90;;;;;;4969244;28;20265;-69
2023/04/18 08:20:18;;;;;;;11.53;9.50;;;11.00;99.90;;;;;;4968438;28;20204;-71
2023/04/18 08:22:43;;;;;;;16.53;10.13;;;11.30;99.90;;;;;;4970210;28;20209;-71
2023/04/18 08:25:09;;;;;;;11.70;9.53;;;11.40;99.90;;;;;;4967651;28;20445;-69
2023/04/18 08:27:35;;;;;;;9.70;8.57;;;11.40;99.90;;;;;;4968201;28;20549;-69
2023/04/18 08:30:02;;;;;;;11.33;8.53;;;11.30;99.90;;;;;;4967969;28;20516;-68
2023/04/18 08:32:28;;;;;;;10.97;9.10;;;11.30;99.90;;;;;;4967241;28;20209;-69
2023/04/18 08:34:54;;;;;;;12.90;9.17;;;11.40;99.90;;;;;;4967227;28;20569;-69
2023/04/18 08:37:20;;;;;;;9.87;8.80;;;11.40;99.90;;;;;;4964171;28;20285;-71
2023/04/18 08:39:45;;;;;;;10.00;8.60;;;11.50;99.90;;;;;;4968043;28;20751;-71
2023/04/18 08:42:20;;;;;;;10.20;8.80;;;11.40;99.90;;;;;;4969212;28;20265;-68
2023/04/18 08:44:47;;;;;;;12.77;9.27;;;11.30;99.90;;;;;;4965746;28;20708;-68
2023/04/18 08:47:13;;;;;;;12.83;9.00;;;11.30;99.90;;;;;;4967404;28;20297;-69
2023/04/18 08:49:39;;;;;;;11.63;9.27;;;11.20;99.90;;;;;;4949906;28;20579;-69
2023/04/18 08:52:10;;;;;;;11.90;8.73;;;11.10;99.90;;;;;;4967673;28;20202;-69
2023/04/18 08:54:37;;;;;;;10.73;8.97;;;11.00;99.90;;;;;;4967712;28;20240;-68
2023/04/18 08:57:06;;;;;;;13.97;9.47;;;11.00;99.90;;;;;;4968864;28;20209;-68
2023/04/18 08:59:34;;;;;;;15.07;10.20;;;10.80;99.90;;;;;;4967792;28;20206;-68
2023/04/18 09:02:01;;;;;;;14.07;10.07;;;10.70;99.90;;;;;;4968647;28;20201;-68
2023/04/18 09:04:37;;;;;;;10.57;8.67;;;10.70;99.90;;;;;;4965913;28;20259;-69
2023/04/18 09:07:04;;;;;;;9.73;8.37;;;10.90;99.90;;;;;;4967578;28;20329;-68
2023/04/18 09:09:48;;;;;;;10.53;9.03;;;11.00;99.90;;;;;;4949793;28;20289;-68
2023/04/18 09:12:24;;;;;;;9.57;8.67;;;10.90;99.90;;;;;;4964967;28;20284;-71
2023/04/18 09:15:11;;;;;;;10.53;9.03;;;10.90;99.90;;;;;;4967938;28;20676;-69
2023/04/18 09:17:42;;;;;;;11.97;9.20;;;11.00;99.90;;;;;;4967237;28;20210;-70
2023/04/18 09:20:14;;;;;;;13.73;9.63;;;10.90;99.90;;;;;;4965458;28;20265;-69
2023/04/18 09:22:50;;;;;;;15.00;10.43;;;10.90;99.90;;;;;;4967456;28;20205;-69
2023/04/18 09:25:33;;;;;;;11.90;8.53;;;11.10;99.90;;;;;;4966453;28;20209;-69
2023/04/18 09:28:00;;;;;;;13.53;9.43;;;11.50;99.90;;;;;;4970753;28;20611;-69
2023/04/18 09:30:40;;;;;;;11.53;8.60;;;11.80;99.90;;;;;;4960996;28;20693;-69
2023/04/18 09:33:08;;;;;;;9.40;8.43;;;12.10;99.90;;;;;;4967537;28;20615;-68
2023/04/18 09:35:35;;;;;;;12.13;8.57;;;12.20;99.90;;;;;;4967512;28;20278;-69
2023/04/18 09:38:01;;;;;;;11.27;8.87;;;12.40;99.90;;;;;;4964597;28;20724;-69
2023/04/18 09:40:27;;;;;;;10.87;8.63;;;12.30;99.90;;;;;;4966745;28;20230;-70
2023/04/18 09:42:53;;;;;;;12.30;9.20;;;12.50;99.90;;;;;;4966692;28;20207;-70
2023/04/18 09:45:19;;;;;;;13.50;9.33;;;12.70;99.90;;;;;;4974784;28;20216;-70
2023/04/18 09:47:45;;;;;;;13.33;9.17;;;12.90;99.90;;;;;;4970661;28;20298;-70
2023/04/18 09:50:11;;;;;;;11.10;8.57;;;13.30;99.90;;;;;;4960577;28;20701;-72
2023/04/18 09:52:38;;;;;;;8.50;7.57;;;13.50;99.90;;;;;;4967350;28;20209;-69
2023/04/18 09:55:06;;;;;;;11.00;8.33;;;13.40;99.90;;;;;;4966991;28;20671;-69
2023/04/18 09:57:33;;;;;;;9.90;7.73;;;13.60;99.90;;;;;;4968578;28;20204;-69
2023/04/18 10:00:22;;;;;;;11.40;8.37;;;13.50;99.90;;;;;;4966733;28;20261;-70
2023/04/18 10:02:58;;;;;;;10.33;8.77;;;13.70;99.90;;;;;;4966603;28;20236;-70
2023/04/18 10:05:30;;;;;;;9.93;8.80;;;13.80;99.90;;;;;;4947705;28;20708;-69
2023/04/18 10:07:56;;;;;;;13.60;9.57;;;14.10;99.90;;;;;;4967902;28;20208;-69
2023/04/18 10:10:22;;;;;;;8.70;7.80;;;14.00;99.90;;;;;;4966744;28;20230;-70
2023/04/18 10:12:49;;;;;;;13.80;8.37;;;13.80;99.90;;;;;;4965017;28;20670;-69
2023/04/18 10:15:16;;;;;;;8.93;7.90;;;13.80;99.90;;;;;;4966580;28;20203;-69
2023/04/18 10:18:02;;;;;;;9.77;8.63;;;14.10;99.90;;;;;;4966474;28;20208;-70
2023/04/18 10:20:30;;;;;;;10.87;8.93;;;14.20;99.90;;;;;;4962843;28;20294;-71
2023/04/18 10:22:57;;;;;;;11.20;9.37;;;14.30;99.90;;;;;;4966994;28;20215;-69
2023/04/18 10:25:37;;;;;;;10.03;8.13;;;14.40;99.90;;;;;;4975936;28;20219;-69
2023/04/18 10:28:07;;;;;;;9.53;8.53;;;14.20;99.90;;;;;;4966789;28;20205;-69
2023/04/18 10:30:39;;;;;;;9.23;8.33;;;14.30;99.90;;;;;;4968219;28;20201;-69
2023/04/18 10:33:23;;;;;;;9.37;8.47;;;14.10;99.90;;;;;;4961003;28;20695;-69
2023/04/18 10:36:08;;;;;;;12.93;9.60;;;14.40;99.90;;;;;;4968210;28;20243;-69
2023/04/18 10:38:43;;;;;;;9.87;8.90;;;14.50;99.90;;;;;;4965855;28;20213;-69
2023/04/18 10:41:29;;;;;;;8.93;7.80;;;14.40;99.90;;;;;;4966158;28;20216;-69
2023/04/18 10:44:06;;;;;;;8.40;7.60;;;14.40;99.90;;;;;;4964176;28;20268;-70
2023/04/18 10:46:36;;;;;;;10.40;8.17;;;14.50;99.90;;;;;;4964662;28;20683;-70
2023/04/18 10:49:18;;;;;;;9.73;8.67;;;14.50;99.90;;;;;;4967121;28;20198;-69
2023/04/18 10:51:48;;;;;;;12.43;8.70;;;14.60;99.90;;;;;;4961548;28;20216;-69
2023/04/18 10:54:32;;;;;;;11.57;7.70;;;14.30;99.90;;;;;;4949886;28;20239;-69
2023/04/18 10:57:00;;;;;;;11.63;8.10;;;14.40;99.90;;;;;;4968985;28;20208;-70
2023/04/18 10:59:29;;;;;;;13.00;8.80;;;14.40;99.90;;;;;;4977162;28;20266;-70
2023/04/18 11:01:58;;;;;;;10.17;8.07;;;14.30;99.90;;;;;;4979841;28;20223;-70
2023/04/18 11:04:24;;;;;;;10.00;8.37;;;14.30;99.90;;;;;;4979490;28;20291;-70
2023/04/18 11:06:56;;;;;;;9.17;8.27;;;14.40;99.90;;;;;;4978159;28;20661;-69
2023/04/18 11:09:21;;;;;;;10.33;7.90;;;14.50;99.90;;;;;;4979244;28;20207;-71
2023/04/18 11:12:05;;;;;;;12.30;9.10;;;14.60;99.90;;;;;;4980188;28;20682;-73
2023/04/18 11:14:46;;;;;;;9.23;7.80;;;14.60;99.90;;;;;;4953492;28;20220;-73
2023/04/18 11:17:16;;;;;;;9.07;8.17;;;14.70;99.90;;;;;;4970820;28;20227;-74
2023/04/18 11:19:42;;;;;;;8.53;7.63;;;14.80;99.90;;;;;;4970207;28;20247;-73
2023/04/18 11:22:07;;;;;;;8.90;8.00;;;14.90;99.90;;;;;;4967589;28;20687;-73
2023/04/18 11:24:33;;;;;;;8.33;7.53;;;15.20;99.90;;;;;;4967787;28;20766;-73
2023/04/18 11:26:59;;;;;;;8.90;7.87;;;15.40;99.90;;;;;;4967486;28;20251;-73
2023/04/18 11:29:26;;;;;;;10.03;7.90;;;15.80;99.90;;;;;;4970096;28;20248;-73
2023/04/18 11:31:52;;;;;;;13.03;7.87;;;15.80;99.90;;;;;;4971260;28;20671;-73
2023/04/18 11:34:17;;;;;;;8.73;7.77;;;15.70;99.90;;;;;;4978636;28;20224;-73
2023/04/18 11:36:47;;;;;;;11.67;8.13;;;15.90;99.90;;;;;;4978822;28;20291;-75
2023/04/18 11:39:13;;;;;;;9.30;7.03;;;15.80;99.90;;;;;;4966588;28;20751;-74
2023/04/18 11:41:40;;;;;;;8.60;7.73;;;15.70;99.90;;;;;;4967505;28;20689;-73
2023/04/18 11:44:05;;;;;;;8.37;7.57;;;15.60;99.90;;;;;;4978959;28;20233;-74
2023/04/18 11:46:38;;;;;;;8.97;6.73;;;15.60;99.90;;;;;;4979248;28;20197;-74
2023/04/18 11:49:03;;;;;;;9.03;7.43;;;15.60;99.90;;;;;;4978798;28;20211;-74
2023/04/18 11:51:43;;;;;;;8.70;7.40;;;15.50;99.90;;;;;;4977812;28;20197;-77
2023/04/18 11:54:34;;;;;;;9.60;7.43;;;15.50;99.90;;;;;;4973235;28;20212;-75
2023/04/18 11:57:01;;;;;;;10.40;8.13;;;15.20;99.90;;;;;;4967009;28;20724;-76
2023/04/18 11:59:26;;;;;;;10.00;7.53;;;15.00;99.90;;;;;;4967506;28;20212;-77
2023/04/18 12:02:00;;;;;;;8.53;7.17;;;14.90;99.90;;;;;;4971029;28;20263;-77
2023/04/18 12:04:25;;;;;;;9.93;7.77;;;14.90;99.90;;;;;;4951727;28;20380;-74
2023/04/18 12:06:52;;;;;;;12.60;8.67;;;14.80;99.90;;;;;;4968198;28;20204;-77
2023/04/18 12:09:23;;;;;;;10.40;8.97;;;14.60;99.90;;;;;;4969042;28;20216;-78
2023/04/18 12:12:02;;;;;;;9.03;8.03;;;14.60;99.90;;;;;;4967840;28;20568;-77
2023/04/18 12:14:29;;;;;;;11.07;8.30;;;14.40;99.90;;;;;;4969726;28;20214;-66
2023/04/18 12:16:55;;;;;;;10.87;8.97;;;14.30;99.90;;;;;;4968897;28;20223;-65
2023/04/18 12:19:26;;;;;;;11.27;9.10;;;14.40;99.90;;;;;;4967239;28;20285;-65
2023/04/18 12:21:59;;;;;;;10.97;9.80;;;14.50;99.90;;;;;;4974768;28;20213;-65
2023/04/18 12:24:27;;;;;;;9.17;8.13;;;14.60;99.90;;;;;;4975688;28;20226;-66
2023/04/18 12:26:56;;;;;;;10.60;9.17;;;14.70;99.90;;;;;;4978373;28;20302;-84
2023/04/18 12:29:22;;;;;;;10.70;9.30;;;14.90;99.90;;;;;;4974036;28;20283;-75
2023/04/18 12:31:48;;;;;;;8.17;7.43;;;15.20;99.90;;;;;;4978694;28;20204;-75
2023/04/18 12:34:14;;;;;;;9.57;8.57;;;15.40;99.90;;;;;;4965232;28;20239;-80
2023/04/18 12:36:39;;;;;;;10.67;8.37;;;15.40;99.90;;;;;;4976400;28;20697;-78
2023/04/18 12:39:05;;;;;;;11.37;9.53;;;15.30;99.90;;;;;;4976307;28;20209;-78